sensor_id;sensor_type;location;lat;lon;timestamp;P1;durP1;ratioP1;P2;durP2;ratioP2
11988;SDS011;6054;50.966;7.094;2022-10-16T00:01:23;3.22;;;1.95;;
11988;SDS011;6054;50.966;7.094;2022-10-16T00:03:52;3.28;;;2.00;;
11988;SDS011;6054;50.966;7.094;2022-10-16T00:06:19;2.30;;;1.92;;
11988;SDS011;6054;50.966;7.094;2022-10-16T00:08:47;3.20;;;1.90;;
11988;SDS011;6054;50.966;7.094;2022-10-16T00:11:15;5.65;;;2.13;;
11988;SDS011;6054;50.966;7.094;2022-10-16T00:13:45;2.42;;;1.67;;
11988;SDS011;6054;50.966;7.094;2022-10-16T00:16:13;4.40;;;1.92;;
11988;SDS011;6054;50.966;7.094;2022-10-16T00:18:40;2.38;;;1.60;;
11988;SDS011;6054;50.966;7.094;2022-10-16T00:21:09;1.98;;;1.80;;
11988;SDS011;6054;50.966;7.094;2022-10-16T00:23:37;2.00;;;1.90;;
11988;SDS011;6054;50.966;7.094;2022-10-16T00:26:05;6.25;;;1.90;;
11988;SDS011;6054;50.966;7.094;2022-10-16T00:28:33;1.80;;;1.70;;
11988;SDS011;6054;50.966;7.094;2022-10-16T00:31:04;1.60;;;1.50;;
11988;SDS011;6054;50.966;7.094;2022-10-16T00:33:32;3.97;;;1.85;;
11988;SDS011;6054;50.966;7.094;2022-10-16T00:35:59;5.80;;;2.10;;
11988;SDS011;6054;50.966;7.094;2022-10-16T00:38:26;5.57;;;1.88;;
11988;SDS011;6054;50.966;7.094;2022-10-16T00:40:53;3.55;;;1.63;;
11988;SDS011;6054;50.966;7.094;2022-10-16T00:43:34;1.70;;;1.60;;
11988;SDS011;6054;50.966;7.094;2022-10-16T00:46:04;1.73;;;1.63;;
11988;SDS011;6054;50.966;7.094;2022-10-16T00:48:36;5.78;;;1.63;;
11988;SDS011;6054;50.966;7.094;2022-10-16T00:51:03;2.22;;;1.48;;
11988;SDS011;6054;50.966;7.094;2022-10-16T00:53:31;7.88;;;2.42;;
11988;SDS011;6054;50.966;7.094;2022-10-16T00:55:59;2.45;;;1.50;;
11988;SDS011;6054;50.966;7.094;2022-10-16T00:58:27;1.70;;;1.55;;
11988;SDS011;6054;50.966;7.094;2022-10-16T01:00:54;4.63;;;1.60;;
11988;SDS011;6054;50.966;7.094;2022-10-16T01:03:23;4.20;;;1.30;;
11988;SDS011;6054;50.966;7.094;2022-10-16T01:05:54;2.42;;;1.50;;
11988;SDS011;6054;50.966;7.094;2022-10-16T01:08:34;1.83;;;1.25;;
11988;SDS011;6054;50.966;7.094;2022-10-16T01:11:06;5.22;;;1.60;;
11988;SDS011;6054;50.966;7.094;2022-10-16T01:13:40;1.92;;;1.70;;
11988;SDS011;6054;50.966;7.094;2022-10-16T01:16:12;2.50;;;1.50;;
11988;SDS011;6054;50.966;7.094;2022-10-16T01:18:44;5.90;;;1.60;;
11988;SDS011;6054;50.966;7.094;2022-10-16T01:21:15;3.47;;;1.40;;
11988;SDS011;6054;50.966;7.094;2022-10-16T01:23:48;5.55;;;1.40;;
11988;SDS011;6054;50.966;7.094;2022-10-16T01:26:31;1.50;;;1.40;;
11988;SDS011;6054;50.966;7.094;2022-10-16T01:29:09;2.00;;;1.30;;
11988;SDS011;6054;50.966;7.094;2022-10-16T01:31:41;3.33;;;1.35;;
11988;SDS011;6054;50.966;7.094;2022-10-16T01:34:15;1.48;;;1.38;;
11988;SDS011;6054;50.966;7.094;2022-10-16T01:36:45;1.63;;;1.20;;
11988;SDS011;6054;50.966;7.094;2022-10-16T01:39:16;7.40;;;1.70;;
11988;SDS011;6054;50.966;7.094;2022-10-16T01:41:48;1.40;;;1.30;;
11988;SDS011;6054;50.966;7.094;2022-10-16T01:44:22;2.97;;;1.50;;
11988;SDS011;6054;50.966;7.094;2022-10-16T01:46:52;3.70;;;1.30;;
11988;SDS011;6054;50.966;7.094;2022-10-16T01:49:20;2.45;;;1.10;;
11988;SDS011;6054;50.966;7.094;2022-10-16T01:51:49;1.77;;;1.48;;
11988;SDS011;6054;50.966;7.094;2022-10-16T01:54:20;2.15;;;1.40;;
11988;SDS011;6054;50.966;7.094;2022-10-16T01:56:48;2.47;;;1.52;;
11988;SDS011;6054;50.966;7.094;2022-10-16T01:59:18;1.88;;;1.30;;
11988;SDS011;6054;50.966;7.094;2022-10-16T02:01:49;4.90;;;1.30;;
11988;SDS011;6054;50.966;7.094;2022-10-16T02:04:19;3.38;;;1.55;;
11988;SDS011;6054;50.966;7.094;2022-10-16T02:06:49;3.75;;;1.58;;
11988;SDS011;6054;50.966;7.094;2022-10-16T02:09:16;1.35;;;1.25;;
11988;SDS011;6054;50.966;7.094;2022-10-16T02:11:43;1.65;;;1.52;;
11988;SDS011;6054;50.966;7.094;2022-10-16T02:14:10;2.00;;;1.50;;
11988;SDS011;6054;50.966;7.094;2022-10-16T02:16:38;2.00;;;1.30;;
11988;SDS011;6054;50.966;7.094;2022-10-16T02:19:08;1.48;;;1.35;;
11988;SDS011;6054;50.966;7.094;2022-10-16T02:21:36;4.10;;;1.50;;
11988;SDS011;6054;50.966;7.094;2022-10-16T02:24:08;5.15;;;1.40;;
11988;SDS011;6054;50.966;7.094;2022-10-16T02:26:43;1.83;;;1.50;;
11988;SDS011;6054;50.966;7.094;2022-10-16T02:29:16;2.55;;;1.23;;
11988;SDS011;6054;50.966;7.094;2022-10-16T02:31:47;1.40;;;1.30;;
11988;SDS011;6054;50.966;7.094;2022-10-16T02:34:18;1.10;;;1.10;;
11988;SDS011;6054;50.966;7.094;2022-10-16T02:36:47;2.60;;;1.40;;
11988;SDS011;6054;50.966;7.094;2022-10-16T02:39:16;1.38;;;1.20;;
11988;SDS011;6054;50.966;7.094;2022-10-16T02:41:43;4.53;;;1.30;;
11988;SDS011;6054;50.966;7.094;2022-10-16T02:44:10;1.45;;;1.20;;
11988;SDS011;6054;50.966;7.094;2022-10-16T02:46:37;1.90;;;1.25;;
11988;SDS011;6054;50.966;7.094;2022-10-16T02:49:04;1.20;;;1.10;;
11988;SDS011;6054;50.966;7.094;2022-10-16T02:51:32;2.60;;;1.20;;
11988;SDS011;6054;50.966;7.094;2022-10-16T02:53:59;1.45;;;1.20;;
11988;SDS011;6054;50.966;7.094;2022-10-16T02:56:25;1.65;;;1.20;;
11988;SDS011;6054;50.966;7.094;2022-10-16T02:58:52;3.97;;;1.42;;
11988;SDS011;6054;50.966;7.094;2022-10-16T03:01:19;1.50;;;1.13;;
11988;SDS011;6054;50.966;7.094;2022-10-16T03:03:45;3.28;;;1.30;;
11988;SDS011;6054;50.966;7.094;2022-10-16T03:06:12;1.35;;;1.23;;
11988;SDS011;6054;50.966;7.094;2022-10-16T03:08:40;2.97;;;1.30;;
11988;SDS011;6054;50.966;7.094;2022-10-16T03:11:07;2.28;;;1.15;;
11988;SDS011;6054;50.966;7.094;2022-10-16T03:13:34;1.33;;;1.30;;
11988;SDS011;6054;50.966;7.094;2022-10-16T03:16:01;2.22;;;1.30;;
11988;SDS011;6054;50.966;7.094;2022-10-16T03:18:28;3.15;;;1.08;;
11988;SDS011;6054;50.966;7.094;2022-10-16T03:20:54;2.33;;;1.27;;
11988;SDS011;6054;50.966;7.094;2022-10-16T03:23:21;5.68;;;1.17;;
11988;SDS011;6054;50.966;7.094;2022-10-16T03:25:49;1.67;;;1.10;;
11988;SDS011;6054;50.966;7.094;2022-10-16T03:28:16;1.65;;;1.17;;
11988;SDS011;6054;50.966;7.094;2022-10-16T03:30:43;1.90;;;1.30;;
11988;SDS011;6054;50.966;7.094;2022-10-16T03:33:09;6.03;;;1.40;;
11988;SDS011;6054;50.966;7.094;2022-10-16T03:35:36;1.67;;;1.50;;
11988;SDS011;6054;50.966;7.094;2022-10-16T03:38:03;2.30;;;1.50;;
11988;SDS011;6054;50.966;7.094;2022-10-16T03:40:30;2.30;;;1.30;;
11988;SDS011;6054;50.966;7.094;2022-10-16T03:42:59;1.30;;;1.15;;
11988;SDS011;6054;50.966;7.094;2022-10-16T03:45:26;1.50;;;1.40;;
11988;SDS011;6054;50.966;7.094;2022-10-16T03:47:53;0.95;;;0.95;;
11988;SDS011;6054;50.966;7.094;2022-10-16T03:50:19;4.07;;;1.33;;
11988;SDS011;6054;50.966;7.094;2022-10-16T03:52:46;1.20;;;1.10;;
11988;SDS011;6054;50.966;7.094;2022-10-16T03:55:13;3.20;;;1.27;;
11988;SDS011;6054;50.966;7.094;2022-10-16T03:57:40;1.90;;;1.60;;
11988;SDS011;6054;50.966;7.094;2022-10-16T04:00:08;4.78;;;1.13;;
11988;SDS011;6054;50.966;7.094;2022-10-16T04:02:36;3.67;;;1.50;;
11988;SDS011;6054;50.966;7.094;2022-10-16T04:05:03;2.47;;;1.60;;
11988;SDS011;6054;50.966;7.094;2022-10-16T04:07:30;1.73;;;1.15;;
11988;SDS011;6054;50.966;7.094;2022-10-16T04:09:57;1.10;;;1.00;;
11988;SDS011;6054;50.966;7.094;2022-10-16T04:12:24;3.03;;;1.52;;
11988;SDS011;6054;50.966;7.094;2022-10-16T04:14:51;2.08;;;0.90;;
11988;SDS011;6054;50.966;7.094;2022-10-16T04:17:19;1.77;;;1.00;;
11988;SDS011;6054;50.966;7.094;2022-10-16T04:19:46;3.38;;;1.20;;
11988;SDS011;6054;50.966;7.094;2022-10-16T04:22:13;4.60;;;1.23;;
11988;SDS011;6054;50.966;7.094;2022-10-16T04:24:40;2.25;;;1.20;;
11988;SDS011;6054;50.966;7.094;2022-10-16T04:27:07;2.83;;;1.10;;
11988;SDS011;6054;50.966;7.094;2022-10-16T04:29:33;2.55;;;1.10;;
11988;SDS011;6054;50.966;7.094;2022-10-16T04:32:00;1.25;;;1.00;;
11988;SDS011;6054;50.966;7.094;2022-10-16T04:34:28;2.00;;;1.20;;
11988;SDS011;6054;50.966;7.094;2022-10-16T04:36:55;2.17;;;1.00;;
11988;SDS011;6054;50.966;7.094;2022-10-16T04:39:22;1.00;;;0.90;;
11988;SDS011;6054;50.966;7.094;2022-10-16T04:41:48;4.10;;;1.00;;
11988;SDS011;6054;50.966;7.094;2022-10-16T04:44:15;1.73;;;0.95;;
11988;SDS011;6054;50.966;7.094;2022-10-16T04:46:42;3.28;;;1.20;;
11988;SDS011;6054;50.966;7.094;2022-10-16T04:49:09;1.38;;;1.00;;
11988;SDS011;6054;50.966;7.094;2022-10-16T04:51:37;3.22;;;1.40;;
11988;SDS011;6054;50.966;7.094;2022-10-16T04:54:04;2.40;;;1.05;;
11988;SDS011;6054;50.966;7.094;2022-10-16T04:56:30;1.15;;;1.02;;
11988;SDS011;6054;50.966;7.094;2022-10-16T04:58:57;2.30;;;1.20;;
11988;SDS011;6054;50.966;7.094;2022-10-16T05:01:24;1.70;;;1.02;;
11988;SDS011;6054;50.966;7.094;2022-10-16T05:03:51;3.22;;;1.10;;
11988;SDS011;6054;50.966;7.094;2022-10-16T05:06:17;1.13;;;1.10;;
11988;SDS011;6054;50.966;7.094;2022-10-16T05:08:45;1.73;;;1.10;;
11988;SDS011;6054;50.966;7.094;2022-10-16T05:11:12;1.15;;;1.00;;
11988;SDS011;6054;50.966;7.094;2022-10-16T05:13:39;4.68;;;1.23;;
11988;SDS011;6054;50.966;7.094;2022-10-16T05:16:06;3.15;;;1.60;;
11988;SDS011;6054;50.966;7.094;2022-10-16T05:18:32;1.55;;;1.00;;
11988;SDS011;6054;50.966;7.094;2022-10-16T05:20:59;3.33;;;0.80;;
11988;SDS011;6054;50.966;7.094;2022-10-16T05:23:26;1.90;;;1.00;;
11988;SDS011;6054;50.966;7.094;2022-10-16T05:25:54;1.02;;;1.02;;
11988;SDS011;6054;50.966;7.094;2022-10-16T05:28:23;1.30;;;1.20;;
11988;SDS011;6054;50.966;7.094;2022-10-16T05:30:50;1.95;;;1.02;;
11988;SDS011;6054;50.966;7.094;2022-10-16T05:33:17;2.00;;;1.15;;
11988;SDS011;6054;50.966;7.094;2022-10-16T05:35:45;2.38;;;0.90;;
11988;SDS011;6054;50.966;7.094;2022-10-16T05:38:12;1.52;;;1.00;;
11988;SDS011;6054;50.966;7.094;2022-10-16T05:40:39;4.80;;;1.10;;
11988;SDS011;6054;50.966;7.094;2022-10-16T05:43:07;1.92;;;1.40;;
11988;SDS011;6054;50.966;7.094;2022-10-16T05:45:34;1.55;;;1.20;;
11988;SDS011;6054;50.966;7.094;2022-10-16T05:48:01;1.48;;;1.20;;
11988;SDS011;6054;50.966;7.094;2022-10-16T05:50:27;3.05;;;0.90;;
11988;SDS011;6054;50.966;7.094;2022-10-16T05:52:54;1.00;;;1.00;;
11988;SDS011;6054;50.966;7.094;2022-10-16T05:55:21;2.95;;;1.00;;
11988;SDS011;6054;50.966;7.094;2022-10-16T05:57:48;2.58;;;1.17;;
11988;SDS011;6054;50.966;7.094;2022-10-16T06:00:16;1.35;;;1.00;;
11988;SDS011;6054;50.966;7.094;2022-10-16T06:02:43;2.15;;;1.00;;
11988;SDS011;6054;50.966;7.094;2022-10-16T06:05:09;2.88;;;1.00;;
11988;SDS011;6054;50.966;7.094;2022-10-16T06:07:36;1.10;;;1.10;;
11988;SDS011;6054;50.966;7.094;2022-10-16T06:10:03;2.25;;;1.10;;
11988;SDS011;6054;50.966;7.094;2022-10-16T06:12:31;2.15;;;1.17;;
11988;SDS011;6054;50.966;7.094;2022-10-16T06:14:58;2.33;;;1.33;;
11988;SDS011;6054;50.966;7.094;2022-10-16T06:17:26;2.13;;;1.17;;
11988;SDS011;6054;50.966;7.094;2022-10-16T06:19:53;2.28;;;1.02;;
11988;SDS011;6054;50.966;7.094;2022-10-16T06:22:19;2.17;;;1.27;;
11988;SDS011;6054;50.966;7.094;2022-10-16T06:24:46;3.65;;;1.05;;
11988;SDS011;6054;50.966;7.094;2022-10-16T06:27:14;1.25;;;1.10;;
11988;SDS011;6054;50.966;7.094;2022-10-16T06:29:41;1.40;;;1.20;;
11988;SDS011;6054;50.966;7.094;2022-10-16T06:32:10;2.78;;;1.20;;
11988;SDS011;6054;50.966;7.094;2022-10-16T06:34:38;2.53;;;1.20;;
11988;SDS011;6054;50.966;7.094;2022-10-16T06:37:06;3.03;;;1.35;;
11988;SDS011;6054;50.966;7.094;2022-10-16T06:39:32;2.65;;;1.25;;
11988;SDS011;6054;50.966;7.094;2022-10-16T06:41:59;2.78;;;1.40;;
11988;SDS011;6054;50.966;7.094;2022-10-16T06:44:26;2.70;;;1.20;;
11988;SDS011;6054;50.966;7.094;2022-10-16T06:46:52;2.05;;;1.20;;
11988;SDS011;6054;50.966;7.094;2022-10-16T06:49:19;3.15;;;1.80;;
11988;SDS011;6054;50.966;7.094;2022-10-16T06:51:48;1.33;;;1.25;;
11988;SDS011;6054;50.966;7.094;2022-10-16T06:54:15;4.65;;;1.30;;
11988;SDS011;6054;50.966;7.094;2022-10-16T06:56:42;2.75;;;1.27;;
11988;SDS011;6054;50.966;7.094;2022-10-16T06:59:09;2.15;;;1.40;;
11988;SDS011;6054;50.966;7.094;2022-10-16T07:01:36;1.55;;;1.17;;
11988;SDS011;6054;50.966;7.094;2022-10-16T07:04:03;1.75;;;1.30;;
11988;SDS011;6054;50.966;7.094;2022-10-16T07:06:31;2.80;;;1.30;;
11988;SDS011;6054;50.966;7.094;2022-10-16T07:09:02;2.28;;;1.33;;
11988;SDS011;6054;50.966;7.094;2022-10-16T07:11:30;1.40;;;1.30;;
11988;SDS011;6054;50.966;7.094;2022-10-16T07:13:57;4.97;;;1.80;;
11988;SDS011;6054;50.966;7.094;2022-10-16T07:16:25;2.55;;;1.33;;
11988;SDS011;6054;50.966;7.094;2022-10-16T07:18:53;1.60;;;1.50;;
11988;SDS011;6054;50.966;7.094;2022-10-16T07:21:23;4.00;;;1.38;;
11988;SDS011;6054;50.966;7.094;2022-10-16T07:23:51;3.60;;;1.20;;
11988;SDS011;6054;50.966;7.094;2022-10-16T07:26:20;2.13;;;1.27;;
11988;SDS011;6054;50.966;7.094;2022-10-16T07:28:47;2.78;;;1.35;;
11988;SDS011;6054;50.966;7.094;2022-10-16T07:31:14;1.85;;;1.30;;
11988;SDS011;6054;50.966;7.094;2022-10-16T07:33:43;1.95;;;1.45;;
11988;SDS011;6054;50.966;7.094;2022-10-16T07:36:11;2.03;;;1.40;;
11988;SDS011;6054;50.966;7.094;2022-10-16T07:38:39;1.50;;;1.30;;
11988;SDS011;6054;50.966;7.094;2022-10-16T07:41:07;2.13;;;1.50;;
11988;SDS011;6054;50.966;7.094;2022-10-16T07:43:38;2.10;;;1.30;;
11988;SDS011;6054;50.966;7.094;2022-10-16T07:46:06;1.23;;;1.17;;
11988;SDS011;6054;50.966;7.094;2022-10-16T07:48:33;1.50;;;1.40;;
11988;SDS011;6054;50.966;7.094;2022-10-16T07:51:00;2.92;;;1.30;;
11988;SDS011;6054;50.966;7.094;2022-10-16T07:53:28;2.55;;;1.00;;
11988;SDS011;6054;50.966;7.094;2022-10-16T07:55:56;1.48;;;1.30;;
11988;SDS011;6054;50.966;7.094;2022-10-16T07:58:24;2.08;;;1.30;;
11988;SDS011;6054;50.966;7.094;2022-10-16T08:00:52;3.92;;;1.33;;
11988;SDS011;6054;50.966;7.094;2022-10-16T08:03:19;3.97;;;1.35;;
11988;SDS011;6054;50.966;7.094;2022-10-16T08:05:46;3.30;;;1.42;;
11988;SDS011;6054;50.966;7.094;2022-10-16T08:08:13;3.30;;;1.10;;
11988;SDS011;6054;50.966;7.094;2022-10-16T08:10:41;3.70;;;1.35;;
11988;SDS011;6054;50.966;7.094;2022-10-16T08:13:08;1.20;;;1.02;;
11988;SDS011;6054;50.966;7.094;2022-10-16T08:18:04;4.13;;;1.40;;
11988;SDS011;6054;50.966;7.094;2022-10-16T08:20:32;1.23;;;1.00;;
11988;SDS011;6054;50.966;7.094;2022-10-16T08:22:59;2.53;;;1.00;;
11988;SDS011;6054;50.966;7.094;2022-10-16T08:25:26;4.20;;;0.98;;
11988;SDS011;6054;50.966;7.094;2022-10-16T08:27:53;2.53;;;1.33;;
11988;SDS011;6054;50.966;7.094;2022-10-16T08:30:21;2.78;;;1.00;;
11988;SDS011;6054;50.966;7.094;2022-10-16T08:32:49;1.58;;;1.10;;
11988;SDS011;6054;50.966;7.094;2022-10-16T08:35:18;1.00;;;0.90;;
11988;SDS011;6054;50.966;7.094;2022-10-16T08:37:45;2.67;;;0.95;;
11988;SDS011;6054;50.966;7.094;2022-10-16T08:40:15;2.53;;;0.80;;
11988;SDS011;6054;50.966;7.094;2022-10-16T08:42:52;1.10;;;0.98;;
11988;SDS011;6054;50.966;7.094;2022-10-16T08:45:34;2.03;;;1.00;;
11988;SDS011;6054;50.966;7.094;2022-10-16T08:48:10;1.73;;;0.95;;
11988;SDS011;6054;50.966;7.094;2022-10-16T08:50:47;1.00;;;0.80;;
11988;SDS011;6054;50.966;7.094;2022-10-16T08:53:17;3.30;;;0.98;;
11988;SDS011;6054;50.966;7.094;2022-10-16T08:55:49;2.00;;;0.70;;
11988;SDS011;6054;50.966;7.094;2022-10-16T08:58:17;1.08;;;0.70;;
11988;SDS011;6054;50.966;7.094;2022-10-16T09:00:46;1.73;;;0.73;;
11988;SDS011;6054;50.966;7.094;2022-10-16T09:03:17;1.67;;;0.90;;
11988;SDS011;6054;50.966;7.094;2022-10-16T09:09:03;0.80;;;0.80;;
11988;SDS011;6054;50.966;7.094;2022-10-16T09:11:43;4.07;;;0.80;;
11988;SDS011;6054;50.966;7.094;2022-10-16T09:14:22;2.30;;;0.93;;
11988;SDS011;6054;50.966;7.094;2022-10-16T09:17:18;3.03;;;0.85;;
11988;SDS011;6054;50.966;7.094;2022-10-16T09:19:53;0.85;;;0.60;;
11988;SDS011;6054;50.966;7.094;2022-10-16T09:22:30;2.83;;;2.63;;
11988;SDS011;6054;50.966;7.094;2022-10-16T09:24:59;1.60;;;1.23;;
11988;SDS011;6054;50.966;7.094;2022-10-16T09:27:27;1.02;;;0.65;;
11988;SDS011;6054;50.966;7.094;2022-10-16T09:29:54;1.35;;;0.70;;
11988;SDS011;6054;50.966;7.094;2022-10-16T09:32:21;1.20;;;0.60;;
11988;SDS011;6054;50.966;7.094;2022-10-16T09:34:49;0.70;;;0.60;;
11988;SDS011;6054;50.966;7.094;2022-10-16T09:37:21;1.88;;;0.77;;
11988;SDS011;6054;50.966;7.094;2022-10-16T09:39:52;0.90;;;0.70;;
11988;SDS011;6054;50.966;7.094;2022-10-16T09:42:19;3.97;;;2.97;;
11988;SDS011;6054;50.966;7.094;2022-10-16T09:44:48;3.25;;;1.50;;
11988;SDS011;6054;50.966;7.094;2022-10-16T09:47:17;2.92;;;2.13;;
11988;SDS011;6054;50.966;7.094;2022-10-16T09:49:50;1.60;;;1.50;;
11988;SDS011;6054;50.966;7.094;2022-10-16T09:52:18;1.75;;;1.02;;
11988;SDS011;6054;50.966;7.094;2022-10-16T09:54:49;3.60;;;0.60;;
11988;SDS011;6054;50.966;7.094;2022-10-16T09:57:18;2.65;;;0.70;;
11988;SDS011;6054;50.966;7.094;2022-10-16T09:59:46;2.72;;;0.70;;
11988;SDS011;6054;50.966;7.094;2022-10-16T10:02:15;0.98;;;0.98;;
11988;SDS011;6054;50.966;7.094;2022-10-16T10:04:44;2.00;;;0.65;;
11988;SDS011;6054;50.966;7.094;2022-10-16T10:07:16;4.47;;;0.73;;
11988;SDS011;6054;50.966;7.094;2022-10-16T10:09:45;0.57;;;0.57;;
11988;SDS011;6054;50.966;7.094;2022-10-16T10:12:18;0.60;;;0.40;;
11988;SDS011;6054;50.966;7.094;2022-10-16T10:14:47;0.77;;;0.63;;
11988;SDS011;6054;50.966;7.094;2022-10-16T10:17:16;6.03;;;0.55;;
11988;SDS011;6054;50.966;7.094;2022-10-16T10:19:46;1.33;;;0.80;;
11988;SDS011;6054;50.966;7.094;2022-10-16T10:22:25;0.90;;;0.55;;
11988;SDS011;6054;50.966;7.094;2022-10-16T10:24:57;1.02;;;0.57;;
11988;SDS011;6054;50.966;7.094;2022-10-16T10:28:06;0.52;;;0.52;;
11988;SDS011;6054;50.966;7.094;2022-10-16T10:30:44;0.50;;;0.50;;
11988;SDS011;6054;50.966;7.094;2022-10-16T10:33:21;1.90;;;0.75;;
11988;SDS011;6054;50.966;7.094;2022-10-16T10:35:56;0.35;;;0.35;;
11988;SDS011;6054;50.966;7.094;2022-10-16T10:38:34;2.22;;;0.65;;
11988;SDS011;6054;50.966;7.094;2022-10-16T10:41:22;1.33;;;0.63;;
11988;SDS011;6054;50.966;7.094;2022-10-16T10:44:21;2.05;;;0.60;;
11988;SDS011;6054;50.966;7.094;2022-10-16T10:46:55;2.03;;;0.60;;
11988;SDS011;6054;50.966;7.094;2022-10-16T10:49:36;1.23;;;0.68;;
11988;SDS011;6054;50.966;7.094;2022-10-16T10:52:22;1.08;;;0.50;;
11988;SDS011;6054;50.966;7.094;2022-10-16T10:55:00;2.58;;;0.60;;
11988;SDS011;6054;50.966;7.094;2022-10-16T10:57:41;2.30;;;0.60;;
11988;SDS011;6054;50.966;7.094;2022-10-16T11:00:23;1.30;;;0.50;;
11988;SDS011;6054;50.966;7.094;2022-10-16T11:02:58;0.75;;;0.43;;
11988;SDS011;6054;50.966;7.094;2022-10-16T11:05:41;1.25;;;1.15;;
11988;SDS011;6054;50.966;7.094;2022-10-16T11:08:12;0.80;;;0.77;;
11988;SDS011;6054;50.966;7.094;2022-10-16T11:10:45;4.03;;;1.50;;
11988;SDS011;6054;50.966;7.094;2022-10-16T11:13:19;1.45;;;0.50;;
11988;SDS011;6054;50.966;7.094;2022-10-16T11:16:00;1.38;;;0.60;;
11988;SDS011;6054;50.966;7.094;2022-10-16T11:18:37;1.83;;;0.95;;
11988;SDS011;6054;50.966;7.094;2022-10-16T11:21:11;1.38;;;0.73;;
11988;SDS011;6054;50.966;7.094;2022-10-16T11:23:41;0.45;;;0.45;;
11988;SDS011;6054;50.966;7.094;2022-10-16T11:26:14;1.60;;;0.70;;
11988;SDS011;6054;50.966;7.094;2022-10-16T11:28:45;2.92;;;0.75;;
11988;SDS011;6054;50.966;7.094;2022-10-16T11:31:17;0.60;;;0.57;;
11988;SDS011;6054;50.966;7.094;2022-10-16T11:33:49;3.42;;;0.50;;
11988;SDS011;6054;50.966;7.094;2022-10-16T11:36:22;2.65;;;0.90;;
11988;SDS011;6054;50.966;7.094;2022-10-16T11:38:52;0.60;;;0.40;;
11988;SDS011;6054;50.966;7.094;2022-10-16T11:41:27;1.45;;;0.60;;
11988;SDS011;6054;50.966;7.094;2022-10-16T11:44:02;2.50;;;0.80;;
11988;SDS011;6054;50.966;7.094;2022-10-16T11:46:42;1.50;;;0.80;;
11988;SDS011;6054;50.966;7.094;2022-10-16T11:49:14;1.25;;;0.55;;
11988;SDS011;6054;50.966;7.094;2022-10-16T11:51:45;1.40;;;0.40;;
11988;SDS011;6054;50.966;7.094;2022-10-16T11:54:21;3.33;;;0.85;;
11988;SDS011;6054;50.966;7.094;2022-10-16T11:56:54;2.08;;;0.50;;
11988;SDS011;6054;50.966;7.094;2022-10-16T11:59:28;3.47;;;0.80;;
11988;SDS011;6054;50.966;7.094;2022-10-16T12:02:08;1.10;;;0.50;;
11988;SDS011;6054;50.966;7.094;2022-10-16T12:04:59;1.10;;;0.50;;
11988;SDS011;6054;50.966;7.094;2022-10-16T12:07:38;0.75;;;0.50;;
11988;SDS011;6054;50.966;7.094;2022-10-16T12:10:18;0.55;;;0.55;;
11988;SDS011;6054;50.966;7.094;2022-10-16T12:12:47;1.17;;;0.40;;
11988;SDS011;6054;50.966;7.094;2022-10-16T12:15:18;1.23;;;0.40;;
11988;SDS011;6054;50.966;7.094;2022-10-16T12:17:50;1.80;;;0.45;;
11988;SDS011;6054;50.966;7.094;2022-10-16T12:20:20;0.82;;;0.40;;
11988;SDS011;6054;50.966;7.094;2022-10-16T12:22:51;1.55;;;0.45;;
11988;SDS011;6054;50.966;7.094;2022-10-16T12:25:21;0.38;;;0.38;;
11988;SDS011;6054;50.966;7.094;2022-10-16T12:27:54;1.60;;;0.50;;
11988;SDS011;6054;50.966;7.094;2022-10-16T12:30:23;0.70;;;0.65;;
11988;SDS011;6054;50.966;7.094;2022-10-16T12:32:56;0.30;;;0.30;;
11988;SDS011;6054;50.966;7.094;2022-10-16T12:35:27;0.45;;;0.40;;
11988;SDS011;6054;50.966;7.094;2022-10-16T12:38:04;0.40;;;0.40;;
11988;SDS011;6054;50.966;7.094;2022-10-16T12:40:34;1.35;;;0.63;;
11988;SDS011;6054;50.966;7.094;2022-10-16T12:43:13;1.13;;;0.50;;
11988;SDS011;6054;50.966;7.094;2022-10-16T12:46:02;1.02;;;0.50;;
11988;SDS011;6054;50.966;7.094;2022-10-16T12:48:33;1.15;;;0.63;;
11988;SDS011;6054;50.966;7.094;2022-10-16T12:51:09;0.85;;;0.38;;
11988;SDS011;6054;50.966;7.094;2022-10-16T12:53:37;2.58;;;0.70;;
11988;SDS011;6054;50.966;7.094;2022-10-16T12:56:14;1.05;;;0.50;;
11988;SDS011;6054;50.966;7.094;2022-10-16T12:58:50;1.50;;;0.73;;
11988;SDS011;6054;50.966;7.094;2022-10-16T13:01:37;1.17;;;0.60;;
11988;SDS011;6054;50.966;7.094;2022-10-16T13:07:15;2.30;;;0.60;;
11988;SDS011;6054;50.966;7.094;2022-10-16T13:09:57;1.27;;;0.70;;
11988;SDS011;6054;50.966;7.094;2022-10-16T13:12:40;1.50;;;0.50;;
11988;SDS011;6054;50.966;7.094;2022-10-16T13:15:24;1.55;;;0.52;;
11988;SDS011;6054;50.966;7.094;2022-10-16T13:18:02;0.90;;;0.60;;
11988;SDS011;6054;50.966;7.094;2022-10-16T13:20:43;0.43;;;0.40;;
11988;SDS011;6054;50.966;7.094;2022-10-16T13:23:27;0.85;;;0.50;;
11988;SDS011;6054;50.966;7.094;2022-10-16T13:26:03;1.38;;;1.00;;
11988;SDS011;6054;50.966;7.094;2022-10-16T13:28:39;1.08;;;0.40;;
11988;SDS011;6054;50.966;7.094;2022-10-16T13:31:09;1.17;;;0.70;;
11988;SDS011;6054;50.966;7.094;2022-10-16T13:33:41;1.25;;;0.55;;
11988;SDS011;6054;50.966;7.094;2022-10-16T13:36:24;1.98;;;0.63;;
11988;SDS011;6054;50.966;7.094;2022-10-16T13:39:06;1.30;;;0.60;;
11988;SDS011;6054;50.966;7.094;2022-10-16T13:41:38;0.98;;;0.60;;
11988;SDS011;6054;50.966;7.094;2022-10-16T13:44:05;0.73;;;0.50;;
11988;SDS011;6054;50.966;7.094;2022-10-16T13:46:39;1.17;;;0.63;;
11988;SDS011;6054;50.966;7.094;2022-10-16T13:49:11;3.30;;;0.60;;
11988;SDS011;6054;50.966;7.094;2022-10-16T13:51:41;0.60;;;0.60;;
11988;SDS011;6054;50.966;7.094;2022-10-16T13:54:19;1.13;;;0.60;;
11988;SDS011;6054;50.966;7.094;2022-10-16T13:56:46;0.70;;;0.70;;
11988;SDS011;6054;50.966;7.094;2022-10-16T13:59:22;0.52;;;0.50;;
11988;SDS011;6054;50.966;7.094;2022-10-16T14:01:50;1.70;;;0.50;;
11988;SDS011;6054;50.966;7.094;2022-10-16T14:04:20;0.65;;;0.65;;
11988;SDS011;6054;50.966;7.094;2022-10-16T14:06:49;0.68;;;0.65;;
11988;SDS011;6054;50.966;7.094;2022-10-16T14:09:21;2.28;;;0.70;;
11988;SDS011;6054;50.966;7.094;2022-10-16T14:11:51;0.63;;;0.63;;
11988;SDS011;6054;50.966;7.094;2022-10-16T14:14:20;3.90;;;0.80;;
11988;SDS011;6054;50.966;7.094;2022-10-16T14:16:48;1.75;;;0.60;;
11988;SDS011;6054;50.966;7.094;2022-10-16T14:19:17;2.50;;;0.70;;
11988;SDS011;6054;50.966;7.094;2022-10-16T14:21:49;1.65;;;0.98;;
11988;SDS011;6054;50.966;7.094;2022-10-16T14:24:24;2.30;;;1.00;;
11988;SDS011;6054;50.966;7.094;2022-10-16T14:26:52;1.27;;;0.60;;
11988;SDS011;6054;50.966;7.094;2022-10-16T14:29:21;0.50;;;0.50;;
11988;SDS011;6054;50.966;7.094;2022-10-16T14:31:56;2.13;;;0.57;;
11988;SDS011;6054;50.966;7.094;2022-10-16T14:34:28;1.65;;;0.80;;
11988;SDS011;6054;50.966;7.094;2022-10-16T14:36:59;1.08;;;0.90;;
11988;SDS011;6054;50.966;7.094;2022-10-16T14:39:32;0.90;;;0.90;;
11988;SDS011;6054;50.966;7.094;2022-10-16T14:41:59;0.70;;;0.70;;
11988;SDS011;6054;50.966;7.094;2022-10-16T14:44:28;0.82;;;0.80;;
11988;SDS011;6054;50.966;7.094;2022-10-16T14:46:58;2.05;;;0.93;;
11988;SDS011;6054;50.966;7.094;2022-10-16T14:49:33;1.05;;;0.70;;
11988;SDS011;6054;50.966;7.094;2022-10-16T14:52:01;2.55;;;0.73;;
11988;SDS011;6054;50.966;7.094;2022-10-16T14:54:30;1.95;;;0.80;;
11988;SDS011;6054;50.966;7.094;2022-10-16T14:56:57;1.95;;;0.70;;
11988;SDS011;6054;50.966;7.094;2022-10-16T14:59:33;1.10;;;1.00;;
11988;SDS011;6054;50.966;7.094;2022-10-16T15:02:09;0.70;;;0.70;;
11988;SDS011;6054;50.966;7.094;2022-10-16T15:04:44;0.85;;;0.60;;
11988;SDS011;6054;50.966;7.094;2022-10-16T15:07:12;1.95;;;0.80;;
11988;SDS011;6054;50.966;7.094;2022-10-16T15:09:39;2.67;;;0.80;;
11988;SDS011;6054;50.966;7.094;2022-10-16T15:12:06;2.60;;;0.70;;
11988;SDS011;6054;50.966;7.094;2022-10-16T15:14:33;0.85;;;0.85;;
11988;SDS011;6054;50.966;7.094;2022-10-16T15:17:00;1.92;;;0.90;;
11988;SDS011;6054;50.966;7.094;2022-10-16T15:19:26;0.77;;;0.70;;
11988;SDS011;6054;50.966;7.094;2022-10-16T15:21:53;0.65;;;0.65;;
11988;SDS011;6054;50.966;7.094;2022-10-16T15:24:21;1.75;;;0.65;;
11988;SDS011;6054;50.966;7.094;2022-10-16T15:26:48;5.15;;;0.90;;
11988;SDS011;6054;50.966;7.094;2022-10-16T15:29:15;0.90;;;0.90;;